Oaks, Oklahoma
Current Conditions -  °F | °C
As of 10:55 AM on Friday 28 Nov 2014 (Local Time) from KTQH Reporting Station
Clear Clear  
Wind Chill: 54°   Ceiling: Unl
Heat Index: 54°   Visibility: 10mi
Dew Point: 32°   Wind: 14mph
Humidity: 44%   Direction: 180°S
Pressure: 30.14"   Gusts: 23mph
Location:  36.17°N, 94.85°W
Report Text: KTQH 281655Z AUTO 18012G20KT 10SM CLR 12/00 A3014 RMK AO2
Loading
Personal Weather Stations






























Interactive Weather Map New forecast layout! Learn more

10-Day Weather Forecast

Advertisements
Track Severe Weather on mobile